createdAt,value
2022-09-12T00:01:16.169Z,99459.00
2022-09-12T00:03:43.048Z,99459.16
2022-09-12T00:06:12.036Z,99454.03
2022-09-12T00:08:39.022Z,99458.69
2022-09-12T00:11:08.663Z,99462.16
2022-09-12T00:13:40.836Z,99464.34
2022-09-12T00:16:14.025Z,99461.16
2022-09-12T00:18:40.545Z,99457.34
2022-09-12T00:21:06.977Z,99456.66
2022-09-12T00:23:33.436Z,99456.84
2022-09-12T00:25:59.986Z,99461.19
2022-09-12T00:28:26.914Z,99453.03
2022-09-12T00:30:53.372Z,99457.00
2022-09-12T00:33:19.777Z,99459.34
2022-09-12T00:35:52.849Z,99452.38
2022-09-12T00:38:19.890Z,99454.50
2022-09-12T00:40:46.805Z,99454.84
2022-09-12T00:43:38.356Z,99452.34
2022-09-12T00:46:15.553Z,99451.84
2022-09-12T00:48:44.913Z,99453.53
2022-09-12T00:51:12.130Z,99455.34
2022-09-12T00:53:40.218Z,99455.34
2022-09-12T00:56:07.408Z,99455.34
2022-09-12T00:58:48.680Z,99457.50
2022-09-12T01:01:15.143Z,99456.97
2022-09-12T01:03:41.712Z,99457.16
2022-09-12T01:06:27.728Z,99463.47
2022-09-12T01:08:54.965Z,99467.09
2022-09-12T01:11:22.133Z,99464.94
2022-09-12T01:13:49.748Z,99467.94
2022-09-12T01:16:16.416Z,99467.59
2022-09-12T01:19:02.508Z,99468.25
2022-09-12T01:21:42.207Z,99471.06
2022-09-12T01:24:51.671Z,99477.19
2022-09-12T01:27:33.569Z,99485.50
2022-09-12T01:30:32.246Z,99479.72
2022-09-12T01:33:33.337Z,99475.53
2022-09-12T01:36:19.726Z,99476.88
2022-09-12T01:38:55.883Z,99468.22
2022-09-12T01:41:31.981Z,99472.38
2022-09-12T01:44:12.304Z,99475.19
2022-09-12T01:46:54.552Z,99475.19
2022-09-12T01:49:27.335Z,99474.69
2022-09-12T01:52:04.644Z,99476.38
2022-09-12T01:54:39.882Z,99481.16
2022-09-12T01:57:13.040Z,99478.84
2022-09-12T01:59:44.346Z,99487.31
2022-09-12T02:02:17.820Z,99480.34
2022-09-12T02:04:59.804Z,99480.34
2022-09-12T02:07:32.013Z,99488.97
2022-09-12T02:10:02.403Z,99481.16
2022-09-12T02:12:35.702Z,99478.34
2022-09-12T02:15:04.334Z,99478.19
2022-09-12T02:17:32.103Z,99486.66
2022-09-12T02:20:03.895Z,99482.69
2022-09-12T02:22:32.104Z,99489.84
2022-09-12T02:25:00.729Z,99488.00
2022-09-12T02:27:32.420Z,99485.53
2022-09-12T02:29:59.077Z,99494.81
2022-09-12T02:32:44.516Z,99485.06
2022-09-12T02:35:38.151Z,99495.50
2022-09-12T02:38:11.185Z,99491.50
2022-09-12T02:40:38.063Z,99497.16
2022-09-12T02:43:06.032Z,99491.50
2022-09-12T02:45:34.450Z,99499.81
2022-09-12T02:48:18.324Z,99502.47
2022-09-12T02:50:45.014Z,99506.13
2022-09-12T02:53:11.772Z,99508.09
2022-09-12T02:55:39.496Z,99500.28
2022-09-12T02:58:12.098Z,99507.25
2022-09-12T03:00:46.830Z,99498.44
2022-09-12T03:03:34.018Z,99502.75
2022-09-12T03:06:02.695Z,99507.09
2022-09-12T03:09:07.904Z,99514.06
2022-09-12T03:11:41.348Z,99509.06
2022-09-12T03:14:31.803Z,99508.06
2022-09-12T03:17:11.599Z,99513.56
2022-09-12T03:20:00.905Z,99515.38
2022-09-12T03:22:42.397Z,99517.38
2022-09-12T03:25:17.972Z,99523.19
2022-09-12T03:27:55.932Z,99525.84
2022-09-12T03:30:22.858Z,99528.63
2022-09-12T03:32:51.425Z,99524.69
2022-09-12T03:35:23.106Z,99528.63
2022-09-12T03:37:50.704Z,99535.31
2022-09-12T03:40:17.180Z,99533.59
2022-09-12T03:42:43.630Z,99538.38
2022-09-12T03:45:11.121Z,99539.88
2022-09-12T03:47:37.862Z,99537.88
2022-09-12T03:50:05.153Z,99543.13
2022-09-12T03:52:32.440Z,99544.97
2022-09-12T03:54:58.909Z,99539.44
2022-09-12T03:57:25.331Z,99537.38
2022-09-12T03:59:52.082Z,99540.03
2022-09-12T04:02:18.562Z,99540.19
2022-09-12T04:04:46.245Z,99541.03
2022-09-12T04:07:12.880Z,99543.38
2022-09-12T04:09:39.718Z,99554.66
2022-09-12T04:12:06.415Z,99552.47
2022-09-12T04:14:33.173Z,99547.31
2022-09-12T04:16:59.983Z,99561.88
2022-09-12T04:19:27.379Z,99559.22
2022-09-12T04:21:54.094Z,99557.59
2022-09-12T04:24:20.589Z,99551.84
2022-09-12T04:26:47.021Z,99554.00
2022-09-12T04:29:15.108Z,99560.44
2022-09-12T04:31:42.040Z,99560.91
2022-09-12T04:34:08.747Z,99569.69
2022-09-12T04:36:35.639Z,99569.84
2022-09-12T04:39:03.479Z,99566.13
2022-09-12T04:41:33.297Z,99560.59
2022-09-12T04:44:04.255Z,99570.00
2022-09-12T04:46:33.890Z,99562.50
2022-09-12T04:49:00.366Z,99565.22
2022-09-12T04:51:29.745Z,99564.63
2022-09-12T04:53:58.267Z,99575.47
2022-09-12T04:56:25.280Z,99584.59
2022-09-12T04:58:52.413Z,99580.91
2022-09-12T05:01:21.280Z,99578.94
2022-09-12T05:03:49.322Z,99581.44
2022-09-12T05:06:24.307Z,99577.66
2022-09-12T05:08:51.606Z,99578.16
2022-09-12T05:11:24.781Z,99580.31
2022-09-12T05:13:53.726Z,99584.09
2022-09-12T05:16:20.884Z,99588.25
2022-09-12T05:18:49.036Z,99592.28
2022-09-12T05:21:17.082Z,99589.31
2022-09-12T05:23:43.978Z,99586.28
2022-09-12T05:26:15.028Z,99596.47
2022-09-12T05:28:41.943Z,99603.97
2022-09-12T05:31:12.120Z,99602.00
2022-09-12T05:33:39.766Z,99593.44
2022-09-12T05:36:08.142Z,99595.66
2022-09-12T05:38:35.632Z,99596.34
2022-09-12T05:41:06.264Z,99602.00
2022-09-12T05:43:34.006Z,99609.19
2022-09-12T05:46:08.861Z,99604.06
2022-09-12T05:48:37.090Z,99606.72
2022-09-12T05:51:07.160Z,99613.44
2022-09-12T05:53:33.647Z,99615.84
2022-09-12T05:56:04.484Z,99613.56
2022-09-12T05:58:31.601Z,99612.59
2022-09-12T06:01:27.948Z,99603.84
2022-09-12T06:03:56.576Z,99605.44
2022-09-12T06:06:24.601Z,99609.13
2022-09-12T06:08:53.217Z,99600.28
2022-09-12T06:11:21.974Z,99607.44
2022-09-12T06:13:48.899Z,99609.13
2022-09-12T06:16:20.979Z,99607.28
2022-09-12T06:18:54.395Z,99602.47
2022-09-12T06:21:22.005Z,99604.97
2022-09-12T06:23:49.200Z,99608.69
2022-09-12T06:26:17.459Z,99604.19
2022-09-12T06:28:45.092Z,99608.88
2022-09-12T06:31:16.268Z,99602.09
2022-09-12T06:33:45.551Z,99611.22
2022-09-12T06:36:16.889Z,99611.22
2022-09-12T06:38:44.312Z,99614.88
2022-09-12T06:41:12.407Z,99617.63
2022-09-12T06:43:39.893Z,99619.28
2022-09-12T06:46:07.561Z,99623.97
2022-09-12T06:48:36.468Z,99623.63
2022-09-12T06:51:09.176Z,99617.03
2022-09-12T06:53:38.714Z,99615.53
2022-09-12T06:56:11.162Z,99620.72
2022-09-12T06:58:37.999Z,99615.72
2022-09-12T07:01:19.107Z,99622.72
2022-09-12T07:03:53.676Z,99625.56
2022-09-12T07:06:22.071Z,99627.44
2022-09-12T07:08:48.628Z,99625.44
2022-09-12T07:11:22.825Z,99627.63
2022-09-12T07:13:56.130Z,99630.63
2022-09-12T07:16:23.026Z,99631.78
2022-09-12T07:18:54.161Z,99636.09
2022-09-12T07:21:21.199Z,99633.16
2022-09-12T07:23:48.284Z,99633.50
2022-09-12T07:26:16.226Z,99643.94
2022-09-12T07:28:43.050Z,99644.41
2022-09-12T07:31:10.887Z,99649.22
2022-09-12T07:33:38.472Z,99650.41
2022-09-12T07:36:07.300Z,99651.91
2022-09-12T07:38:33.897Z,99666.97
2022-09-12T07:41:01.692Z,99670.03
2022-09-12T07:43:28.178Z,99668.47
2022-09-12T07:45:58.459Z,99664.97
2022-09-12T07:48:25.107Z,99675.28
2022-09-12T07:50:59.823Z,99675.97
2022-09-12T07:53:30.874Z,99676.13
2022-09-12T07:55:57.354Z,99678.63
2022-09-12T07:58:24.543Z,99685.47
2022-09-12T08:00:51.177Z,99682.97
2022-09-12T08:03:17.728Z,99677.97
2022-09-12T08:05:44.298Z,99681.31
2022-09-12T08:08:11.168Z,99685.47
2022-09-12T08:10:37.602Z,99684.78
2022-09-12T08:13:04.176Z,99689.81
2022-09-12T08:15:32.099Z,99691.97
2022-09-12T08:17:58.602Z,99694.97
2022-09-12T08:20:28.243Z,99694.00
2022-09-12T08:22:55.060Z,99693.66
2022-09-12T08:25:21.586Z,99686.84
2022-09-12T08:27:48.371Z,99686.50
2022-09-12T08:30:14.969Z,99696.00
2022-09-12T08:32:41.532Z,99699.50
2022-09-12T08:35:08.295Z,99697.50
2022-09-12T08:37:34.726Z,99698.63
2022-09-12T08:40:01.378Z,99699.47
2022-09-12T08:42:46.609Z,99693.47
2022-09-12T08:45:37.095Z,99697.47
2022-09-12T08:48:05.057Z,99700.44
2022-09-12T08:50:32.672Z,99695.81
2022-09-12T08:53:03.526Z,99705.94
2022-09-12T08:56:05.347Z,99699.38
2022-09-12T08:58:39.470Z,99704.34
2022-09-12T09:01:15.691Z,99705.19
2022-09-12T09:04:01.590Z,99710.72
2022-09-12T09:07:05.856Z,99713.34
2022-09-12T09:09:57.139Z,99711.19
2022-09-12T09:12:33.131Z,99703.03
2022-09-12T09:15:22.169Z,99709.69
2022-09-12T09:17:52.015Z,99711.03
2022-09-12T09:20:32.071Z,99716.00
2022-09-12T09:23:03.570Z,99714.16
2022-09-12T09:25:40.583Z,99706.63
2022-09-12T09:28:17.505Z,99715.66
2022-09-12T09:30:45.071Z,99711.66
2022-09-12T09:33:23.072Z,99716.25
2022-09-12T09:36:22.466Z,99711.28
2022-09-12T09:39:09.812Z,99716.31
2022-09-12T09:41:52.221Z,99724.41
2022-09-12T09:44:18.946Z,99718.72
2022-09-12T09:46:45.418Z,99723.22
2022-09-12T09:49:13.320Z,99728.69
2022-09-12T09:51:41.177Z,99726.19
2022-09-12T09:54:21.093Z,99728.56
2022-09-12T09:56:47.731Z,99726.63
2022-09-12T09:59:18.548Z,99735.13
2022-09-12T10:01:54.950Z,99736.78
2022-09-12T10:04:32.363Z,99728.41
2022-09-12T10:07:01.291Z,99739.88
2022-09-12T10:09:35.405Z,99739.22
2022-09-12T10:12:21.309Z,99737.53
2022-09-12T10:15:01.854Z,99749.47
2022-09-12T10:17:34.500Z,99751.19
2022-09-12T10:20:21.566Z,99755.53
2022-09-12T10:22:48.743Z,99752.50
2022-09-12T10:25:16.876Z,99747.38
2022-09-12T10:27:43.445Z,99757.81
2022-09-12T10:30:20.799Z,99755.09
2022-09-12T10:32:52.349Z,99755.66
2022-09-12T10:35:22.602Z,99761.47
2022-09-12T10:38:02.493Z,99762.19
2022-09-12T10:40:35.212Z,99765.56
2022-09-12T10:43:07.164Z,99767.53
2022-09-12T10:45:35.776Z,99767.34
2022-09-12T10:48:21.860Z,99762.13
2022-09-12T10:50:48.321Z,99766.66
2022-09-12T10:53:33.741Z,99769.47
2022-09-12T10:56:14.583Z,99777.47
2022-09-12T10:59:05.134Z,99772.13
2022-09-12T11:01:41.815Z,99785.41
2022-09-12T11:04:32.864Z,99773.88
2022-09-12T11:07:35.718Z,99773.53
2022-09-12T11:10:24.697Z,99776.00
2022-09-12T11:13:00.153Z,99783.31
2022-09-12T11:15:54.062Z,99777.19
2022-09-12T11:18:51.138Z,99781.53
2022-09-12T11:21:34.492Z,99774.94
2022-09-12T11:24:20.233Z,99787.53
2022-09-12T11:27:20.109Z,99781.59
2022-09-12T11:29:59.189Z,99781.75
2022-09-12T11:32:35.838Z,99777.31
2022-09-12T11:35:06.079Z,99784.78
2022-09-12T11:37:59.005Z,99784.56
2022-09-12T11:40:52.136Z,99778.25
2022-09-12T11:43:37.494Z,99776.34
2022-09-12T11:46:18.406Z,99787.56
2022-09-12T11:49:08.061Z,99786.03
2022-09-12T11:51:42.249Z,99788.94
2022-09-12T11:54:23.582Z,99788.72
2022-09-12T11:56:55.847Z,99789.28
2022-09-12T11:59:32.368Z,99789.34
2022-09-12T12:02:00.205Z,99784.16
2022-09-12T12:04:35.533Z,99788.28
2022-09-12T12:07:05.961Z,99786.59
2022-09-12T12:09:32.908Z,99795.38
2022-09-12T12:12:03.308Z,99790.53
2022-09-12T12:14:37.017Z,99782.72
2022-09-12T12:17:03.513Z,99788.56
2022-09-12T12:19:37.100Z,99792.00
2022-09-12T12:22:07.672Z,99788.97
2022-09-12T12:24:34.204Z,99793.31
2022-09-12T12:27:05.729Z,99795.72
2022-09-12T12:29:35.090Z,99791.34
2022-09-12T12:32:04.707Z,99791.56
2022-09-12T12:34:32.263Z,99792.38
2022-09-12T12:37:03.180Z,99796.44
2022-09-12T12:39:32.021Z,99794.00
2022-09-12T12:42:01.598Z,99795.66
2022-09-12T12:44:47.197Z,99794.41
2022-09-12T12:47:29.349Z,99795.56
2022-09-12T12:49:59.320Z,99799.34
2022-09-12T12:52:30.654Z,99800.56
2022-09-12T12:54:59.006Z,99806.31
2022-09-12T12:57:48.483Z,99805.19
2022-09-12T13:00:29.763Z,99810.72
2022-09-12T13:02:59.811Z,99801.00
2022-09-12T13:05:27.774Z,99800.19
2022-09-12T13:08:03.753Z,99806.38
2022-09-12T13:10:30.876Z,99807.56
2022-09-12T13:13:01.301Z,99811.00
2022-09-12T13:15:37.094Z,99807.31
2022-09-12T13:18:11.691Z,99809.72
2022-09-12T13:20:46.179Z,99808.34
2022-09-12T13:23:23.551Z,99815.44
2022-09-12T13:25:55.378Z,99809.38
2022-09-12T13:28:21.859Z,99811.28
2022-09-12T13:30:59.579Z,99810.19
2022-09-12T13:33:40.429Z,99815.25
2022-09-12T13:36:17.586Z,99813.97
2022-09-12T13:39:03.394Z,99820.34
2022-09-12T13:41:39.503Z,99821.03
2022-09-12T13:44:11.080Z,99813.25
2022-09-12T13:46:38.005Z,99815.00
2022-09-12T13:49:16.579Z,99810.63
2022-09-12T13:51:43.323Z,99809.91
2022-09-12T13:54:18.532Z,99809.50
2022-09-12T13:56:48.722Z,99805.88
2022-09-12T13:59:15.223Z,99798.88
2022-09-12T14:01:44.028Z,99810.81
2022-09-12T14:04:39.757Z,99809.78
2022-09-12T14:07:17.153Z,99806.22
2022-09-12T14:09:45.324Z,99802.06
2022-09-12T14:12:23.177Z,99807.00
2022-09-12T14:14:51.019Z,99809.03
2022-09-12T14:17:23.560Z,99805.84
2022-09-12T14:19:51.212Z,99809.63
2022-09-12T14:22:18.093Z,99806.22
2022-09-12T14:24:50.426Z,99802.84
2022-09-12T14:27:25.717Z,99806.75
2022-09-12T14:30:34.533Z,99804.19
2022-09-12T14:33:10.258Z,99807.41
2022-09-12T14:35:42.660Z,99809.69
2022-09-12T14:38:15.839Z,99801.88
2022-09-12T14:40:44.679Z,99802.72
2022-09-12T14:43:23.539Z,99798.72
2022-09-12T14:45:55.477Z,99797.50
2022-09-12T14:48:22.246Z,99794.94
2022-09-12T14:50:50.835Z,99801.41
2022-09-12T14:53:17.158Z,99794.59
2022-09-12T14:55:53.001Z,99810.56
2022-09-12T14:58:23.513Z,99800.03
2022-09-12T15:01:08.600Z,99806.69
2022-09-12T15:03:41.849Z,99803.09
2022-09-12T15:06:29.656Z,99802.25
2022-09-12T15:08:59.045Z,99803.03
2022-09-12T15:11:25.611Z,99803.38
2022-09-12T15:13:52.239Z,99806.44
2022-09-12T15:16:18.822Z,99804.53
2022-09-12T15:18:45.488Z,99813.19
2022-09-12T15:21:15.729Z,99808.53
2022-09-12T15:23:47.212Z,99811.75
2022-09-12T15:26:16.319Z,99810.59
2022-09-12T15:28:43.352Z,99813.13
2022-09-12T15:31:19.228Z,99812.63
2022-09-12T15:33:46.209Z,99812.50
2022-09-12T15:36:17.858Z,99814.19
2022-09-12T15:38:45.332Z,99823.97
2022-09-12T15:41:16.293Z,99815.13
2022-09-12T15:43:42.938Z,99816.00
2022-09-12T15:46:12.016Z,99818.16
2022-09-12T15:48:39.057Z,99823.84
2022-09-12T15:51:13.420Z,99818.88
2022-09-12T15:53:41.860Z,99823.19
2022-09-12T15:56:08.787Z,99817.66
2022-09-12T15:58:35.451Z,99826.25
2022-09-12T16:01:02.559Z,99822.94
2022-09-12T16:03:29.921Z,99823.94
2022-09-12T16:06:01.954Z,99820.81
2022-09-12T16:08:32.301Z,99815.34
2022-09-12T16:11:01.766Z,99824.03
2022-09-12T16:13:28.262Z,99819.06
2022-09-12T16:15:58.748Z,99822.63
2022-09-12T16:18:25.709Z,99827.72
2022-09-12T16:20:56.141Z,99826.78
2022-09-12T16:23:25.485Z,99823.28
2022-09-12T16:26:06.383Z,99816.53
2022-09-12T16:28:33.717Z,99818.81
2022-09-12T16:31:02.089Z,99819.94
2022-09-12T16:33:29.391Z,99818.00
2022-09-12T16:36:05.413Z,99817.72
2022-09-12T16:38:33.047Z,99805.72
2022-09-12T16:41:00.971Z,99815.75
2022-09-12T16:43:27.545Z,99814.44
2022-09-12T16:46:21.320Z,99814.44
2022-09-12T16:48:53.531Z,99821.19
2022-09-12T16:51:22.543Z,99821.66
2022-09-12T16:53:49.451Z,99818.56
2022-09-12T16:56:16.324Z,99821.00
2022-09-12T16:58:43.072Z,99820.00
2022-09-12T17:01:21.545Z,99818.78
2022-09-12T17:03:48.691Z,99821.13
2022-09-12T17:06:18.045Z,99826.97
2022-09-12T17:08:47.388Z,99824.13
2022-09-12T17:11:22.730Z,99819.47
2022-09-12T17:14:04.301Z,99829.72
2022-09-12T17:16:34.286Z,99836.53
2022-09-12T17:19:01.139Z,99832.25
2022-09-12T17:21:27.771Z,99832.38
2022-09-12T17:23:54.593Z,99831.88
2022-09-12T17:26:21.375Z,99830.78
2022-09-12T17:28:48.196Z,99837.72
2022-09-12T17:31:15.046Z,99829.94
2022-09-12T17:33:42.029Z,99829.97
2022-09-12T17:36:15.211Z,99834.84
2022-09-12T17:38:43.703Z,99838.34
2022-09-12T17:41:18.498Z,99833.00
2022-09-12T17:43:46.536Z,99836.88
2022-09-12T17:46:13.375Z,99834.72
2022-09-12T17:48:39.858Z,99832.22
2022-09-12T17:51:11.157Z,99833.09
2022-09-12T17:53:38.078Z,99835.53
2022-09-12T17:56:05.721Z,99839.22
2022-09-12T17:58:32.993Z,99831.22
2022-09-12T18:01:26.731Z,99834.03
2022-09-12T18:03:55.536Z,99836.34
2022-09-12T18:06:23.021Z,99834.19
2022-09-12T18:08:49.455Z,99830.41
2022-09-12T18:11:16.225Z,99832.53
2022-09-12T18:13:42.769Z,99837.38
2022-09-12T18:16:11.391Z,99829.25
2022-09-12T18:18:38.321Z,99829.22
2022-09-12T18:21:06.848Z,99837.75
2022-09-12T18:23:34.028Z,99836.41
2022-09-12T18:26:02.578Z,99833.25
2022-09-12T18:28:29.049Z,99833.78
2022-09-12T18:30:55.643Z,99835.84
2022-09-12T18:33:24.246Z,99818.63
2022-09-12T18:35:50.914Z,99831.97
2022-09-12T18:38:17.497Z,99825.91
2022-09-12T18:40:44.296Z,99832.44
2022-09-12T18:43:10.953Z,99834.44
2022-09-12T18:45:37.366Z,99837.31
2022-09-12T18:48:06.261Z,99837.47
2022-09-12T18:50:33.015Z,99828.44
2022-09-12T18:53:00.006Z,99828.50
2022-09-12T18:55:26.898Z,99834.28
2022-09-12T18:57:55.170Z,99835.63
2022-09-12T19:00:21.750Z,99832.66
2022-09-12T19:02:48.290Z,99835.91
2022-09-12T19:05:14.935Z,99842.22
2022-09-12T19:07:41.385Z,99839.59
2022-09-12T19:10:08.939Z,99835.09
2022-09-12T19:12:35.643Z,99836.94
2022-09-12T19:15:02.087Z,99834.28
2022-09-12T19:17:28.752Z,99842.94
2022-09-12T19:19:55.471Z,99841.94
2022-09-12T19:22:22.191Z,99838.97
2022-09-12T19:24:48.705Z,99837.78
2022-09-12T19:27:16.059Z,99825.94
2022-09-12T19:29:42.521Z,99831.13
2022-09-12T19:32:09.317Z,99820.97
2022-09-12T19:34:35.804Z,99823.78
2022-09-12T19:37:02.471Z,99818.97
2022-09-12T19:39:29.051Z,99821.16
2022-09-12T19:41:55.519Z,99824.19
2022-09-12T19:44:23.651Z,99826.66
2022-09-12T19:46:50.831Z,99819.81
2022-09-12T19:49:17.326Z,99814.53
2022-09-12T19:51:43.931Z,99813.84
2022-09-12T19:54:11.103Z,99815.34
2022-09-12T19:56:37.577Z,99811.81
2022-09-12T19:59:04.273Z,99813.34
2022-09-12T20:01:31.043Z,99811.84
2022-09-12T20:03:58.153Z,99803.03
2022-09-12T20:06:25.805Z,99808.19
2022-09-12T20:08:53.047Z,99803.53
2022-09-12T20:11:21.702Z,99807.69
2022-09-12T20:13:48.246Z,99806.38
2022-09-12T20:16:20.981Z,99813.38
2022-09-12T20:18:49.393Z,99799.03
2022-09-12T20:21:20.455Z,99801.03
2022-09-12T20:23:47.005Z,99809.38
2022-09-12T20:26:13.759Z,99810.66
2022-09-12T20:28:41.344Z,99807.53
2022-09-12T20:31:11.281Z,99804.50
2022-09-12T20:33:37.793Z,99799.66
2022-09-12T20:36:15.762Z,99797.00
2022-09-12T20:38:46.621Z,99799.00
2022-09-12T20:41:13.182Z,99796.47
2022-09-12T20:43:40.079Z,99801.44
2022-09-12T20:46:09.761Z,99801.44
2022-09-12T20:48:39.009Z,99800.59
2022-09-12T20:51:05.747Z,99800.59
2022-09-12T20:53:35.077Z,99804.56
2022-09-12T20:56:02.466Z,99800.75
2022-09-12T20:58:28.968Z,99796.19
2022-09-12T21:00:55.420Z,99792.84
2022-09-12T21:03:21.967Z,99791.97
2022-09-12T21:05:48.396Z,99796.13
2022-09-12T21:08:14.853Z,99792.63
2022-09-12T21:10:42.352Z,99800.53
2022-09-12T21:13:12.470Z,99795.06
2022-09-12T21:15:39.992Z,99791.88
2022-09-12T21:18:06.932Z,99796.34
2022-09-12T21:20:33.540Z,99806.16
2022-09-12T21:23:00.359Z,99802.00
2022-09-12T21:25:28.914Z,99802.28
2022-09-12T21:27:55.401Z,99795.66
2022-09-12T21:30:22.190Z,99802.72
2022-09-12T21:32:48.604Z,99799.53
2022-09-12T21:35:15.156Z,99799.31
2022-09-12T21:37:41.575Z,99796.16
2022-09-12T21:40:08.468Z,99794.59
2022-09-12T21:42:34.933Z,99792.78
2022-09-12T21:45:01.339Z,99792.47
2022-09-12T21:47:28.008Z,99796.50
2022-09-12T21:49:55.453Z,99788.09
2022-09-12T21:52:22.018Z,99781.75
2022-09-12T21:54:48.425Z,99774.38
2022-09-12T21:57:15.009Z,99776.19
2022-09-12T21:59:41.508Z,99774.06
2022-09-12T22:02:08.720Z,99778.44
2022-09-12T22:04:35.200Z,99772.75
2022-09-12T22:07:02.080Z,99776.41
2022-09-12T22:09:28.528Z,99784.16
2022-09-12T22:11:55.598Z,99779.63
2022-09-12T22:14:21.993Z,99777.56
2022-09-12T22:16:49.400Z,99784.72
2022-09-12T22:19:15.985Z,99777.13
2022-09-12T22:22:02.362Z,99777.31
2022-09-12T22:24:29.158Z,99768.78
2022-09-12T22:26:56.446Z,99765.78
2022-09-12T22:29:23.497Z,99768.75
2022-09-12T22:31:50.101Z,99760.47
2022-09-12T22:34:16.520Z,99769.69
2022-09-12T22:36:43.390Z,99767.00
2022-09-12T22:39:09.966Z,99767.59
2022-09-12T22:41:36.369Z,99764.25
2022-09-12T22:44:02.906Z,99769.41
2022-09-12T22:46:30.882Z,99766.22
2022-09-12T22:48:57.338Z,99769.19
2022-09-12T22:51:23.751Z,99764.88
2022-09-12T22:53:50.358Z,99767.53
2022-09-12T22:56:16.971Z,99761.53
2022-09-12T22:58:43.802Z,99765.47
2022-09-12T23:01:10.933Z,99758.78
2022-09-12T23:03:37.637Z,99761.75
2022-09-12T23:06:04.737Z,99761.38
2022-09-12T23:08:32.030Z,99756.66
2022-09-12T23:11:07.063Z,99760.81
2022-09-12T23:13:33.875Z,99761.13
2022-09-12T23:16:01.285Z,99768.00
2022-09-12T23:18:28.044Z,99767.75
2022-09-12T23:20:58.923Z,99760.69
2022-09-12T23:23:25.347Z,99751.38
2022-09-12T23:26:02.176Z,99753.75
2022-09-12T23:28:29.117Z,99746.63
2022-09-12T23:30:56.293Z,99753.28
2022-09-12T23:33:23.447Z,99739.88
2022-09-12T23:35:49.914Z,99736.94
2022-09-12T23:38:16.331Z,99731.91
2022-09-12T23:40:42.766Z,99726.22
2022-09-12T23:43:09.185Z,99725.25
2022-09-12T23:45:35.654Z,99723.28
2022-09-12T23:48:02.434Z,99736.63
2022-09-12T23:50:28.874Z,99735.25
2022-09-12T23:52:55.326Z,99737.78
2022-09-12T23:55:21.830Z,99738.28
2022-09-12T23:57:48.245Z,99739.28
